Time;durP1;ratioP1;P1;durP2;ratioP2;P2;SDS_P1;SDS_P2;PMS_P1;PMS_P2;Temp;Humidity;BMP_temperature;BMP_pressure;BME280_temperature;BME280_humidity;BME280_pressure;Samples;Min_cycle;Max_cycle;Signal;HPM_P1;HPM_P2
2023/12/07 00:02:25;;;;;;;61.33;38.43;;;2.50;99.90;;;1.34;100.00;101061.03;5072814;28;20772;-72
2023/12/07 00:04:54;;;;;;;52.10;34.67;;;2.50;99.90;;;1.34;100.00;101068.94;5073050;28;20205;-72
2023/12/07 00:07:22;;;;;;;58.40;36.30;;;2.50;99.90;;;1.35;100.00;101069.78;5073049;28;20240;-72
2023/12/07 00:09:51;;;;;;;63.87;38.20;;;2.50;99.90;;;1.35;100.00;101067.16;5072736;28;20670;-72
2023/12/07 00:12:21;;;;;;;61.83;38.30;;;2.60;99.90;;;1.33;100.00;101064.63;5072965;28;20229;-72
2023/12/07 00:14:51;;;;;;;60.63;36.87;;;2.50;99.90;;;1.35;100.00;101075.91;5072986;28;20218;-72
2023/12/07 00:17:20;;;;;;;59.53;36.90;;;2.50;99.90;;;1.36;100.00;101074.13;5073173;28;20304;-72
2023/12/07 00:19:48;;;;;;;55.13;36.10;;;2.50;99.90;;;1.36;100.00;101074.13;5074993;28;20253;-72
2023/12/07 00:22:16;;;;;;;52.10;34.97;;;2.50;99.90;;;1.36;100.00;101069.72;5076612;28;20593;-72
2023/12/07 00:24:44;;;;;;;47.23;33.73;;;2.50;99.90;;;1.38;100.00;101078.38;5076642;28;20212;-72
2023/12/07 00:27:13;;;;;;;45.73;32.00;;;2.50;99.90;;;1.39;100.00;101082.72;5076349;28;20743;-72
2023/12/07 00:29:42;;;;;;;44.37;31.43;;;2.60;99.90;;;1.38;100.00;101083.63;5076850;28;20209;-72
2023/12/07 00:32:10;;;;;;;41.00;29.93;;;2.60;99.90;;;1.39;100.00;101089.78;5076254;28;20320;-72
2023/12/07 00:34:39;;;;;;;40.63;30.10;;;2.50;99.90;;;1.39;100.00;101081.84;5076439;28;20240;-72
2023/12/07 00:37:07;;;;;;;43.23;30.77;;;2.50;99.90;;;1.39;100.00;101089.78;5076450;28;20209;-72
2023/12/07 00:39:36;;;;;;;40.80;30.23;;;2.50;99.90;;;1.38;100.00;101088.91;5076371;28;20233;-72
2023/12/07 00:42:06;;;;;;;39.07;28.63;;;2.50;99.90;;;1.40;100.00;101089.69;5075921;28;20225;-72
2023/12/07 00:44:34;;;;;;;40.37;28.93;;;2.50;99.90;;;1.39;100.00;101090.63;5076620;28;20201;-72
2023/12/07 00:47:04;;;;;;;37.73;28.00;;;2.60;99.90;;;1.39;100.00;101095.91;5076234;28;20591;-72
2023/12/07 00:49:33;;;;;;;39.83;28.90;;;2.50;99.90;;;1.41;100.00;101099.28;5076243;28;20300;-72
2023/12/07 00:52:01;;;;;;;36.27;27.23;;;2.60;99.90;;;1.40;100.00;101097.59;5076081;28;20229;-72
2023/12/07 00:54:30;;;;;;;36.33;27.37;;;2.60;99.90;;;1.42;100.00;101100.13;5076305;28;20228;-72
2023/12/07 00:56:58;;;;;;;37.83;28.53;;;2.60;99.90;;;1.42;100.00;101102.78;5076088;28;20233;-72
2023/12/07 00:59:26;;;;;;;38.27;27.23;;;2.60;99.90;;;1.43;100.00;101101.84;5075786;28;20251;-72
2023/12/07 01:01:55;;;;;;;36.37;27.53;;;2.60;99.90;;;1.44;100.00;101112.28;5075922;28;20272;-72
2023/12/07 01:04:24;;;;;;;35.97;27.50;;;2.60;99.90;;;1.42;100.00;101106.25;5075588;28;20645;-72
2023/12/07 01:06:52;;;;;;;36.20;27.17;;;2.60;99.90;;;1.43;100.00;101113.25;5075919;28;20204;-72
2023/12/07 01:09:21;;;;;;;36.27;27.10;;;2.60;99.90;;;1.43;100.00;101113.25;5075913;28;20581;-72
2023/12/07 01:11:50;;;;;;;41.53;28.83;;;2.60;99.90;;;1.42;100.00;101122.09;5075736;28;20225;-72
2023/12/07 01:14:19;;;;;;;37.03;27.27;;;2.70;99.90;;;1.42;100.00;101122.09;5075781;28;20240;-72
2023/12/07 01:16:47;;;;;;;32.97;26.13;;;2.60;99.90;;;1.43;100.00;101126.44;5075660;28;20257;-72
2023/12/07 01:19:15;;;;;;;34.23;25.87;;;2.60;99.90;;;1.44;100.00;101125.47;5075697;28;20241;-72
2023/12/07 01:21:45;;;;;;;33.57;26.67;;;2.60;99.90;;;1.44;100.00;101125.47;5075549;28;20283;-72
2023/12/07 01:24:13;;;;;;;34.03;26.03;;;2.60;99.90;;;1.44;100.00;101130.75;5075811;28;20267;-72
2023/12/07 01:26:43;;;;;;;34.70;26.93;;;2.60;99.90;;;1.45;100.00;101140.38;5075589;28;20212;-72
2023/12/07 01:29:13;;;;;;;31.90;24.83;;;2.60;99.90;;;1.45;100.00;101136.88;5075571;28;20256;-72
2023/12/07 01:31:42;;;;;;;33.10;26.17;;;2.60;99.90;;;1.46;100.00;101134.16;5075013;28;20379;-72
2023/12/07 01:34:10;;;;;;;33.43;25.93;;;2.60;99.90;;;1.45;100.00;101145.66;5075429;28;20277;-72
2023/12/07 01:36:38;;;;;;;34.50;25.73;;;2.80;99.90;;;1.46;100.00;101149.13;5075259;28;20253;-72
2023/12/07 01:39:08;;;;;;;37.63;27.40;;;2.60;99.90;;;1.45;100.00;101153.56;5075332;28;20216;-72
2023/12/07 01:41:36;;;;;;;35.57;26.10;;;2.60;99.90;;;1.45;100.00;101158.84;5074844;28;20719;-72
2023/12/07 01:44:04;;;;;;;35.40;26.13;;;2.60;99.90;;;1.46;100.00;101157.91;5076144;28;20244;-72
2023/12/07 01:46:34;;;;;;;38.43;26.50;;;2.60;99.90;;;1.46;100.00;101160.53;5075209;28;20212;-72
2023/12/07 01:49:03;;;;;;;37.23;26.80;;;2.70;99.90;;;1.46;100.00;101157.91;5075241;28;20209;-72
2023/12/07 01:51:32;;;;;;;38.03;26.27;;;2.70;99.90;;;1.48;100.00;101160.44;5074988;28;20248;-72
2023/12/07 01:54:00;;;;;;;32.80;26.27;;;2.70;99.90;;;1.47;100.00;101164.84;5074928;28;20686;-72
2023/12/07 01:56:31;;;;;;;33.10;25.20;;;2.60;99.90;;;1.49;100.00;101165.63;5074925;28;20312;-72
2023/12/07 01:58:59;;;;;;;37.80;27.53;;;2.60;99.90;;;1.50;100.00;101162.06;5074977;28;20228;-72
2023/12/07 02:01:28;;;;;;;39.00;27.63;;;2.60;99.90;;;1.49;100.00;101165.63;5075664;28;20297;-72
2023/12/07 02:03:57;;;;;;;36.90;26.73;;;2.60;99.90;;;1.50;100.00;101167.34;5074794;28;20210;-72
2023/12/07 02:06:26;;;;;;;34.50;27.03;;;2.70;99.90;;;1.50;100.00;101162.06;5074693;28;20212;-72
2023/12/07 02:08:54;;;;;;;37.10;26.63;;;2.60;99.90;;;1.50;100.00;101169.97;5074448;28;20732;-72
2023/12/07 02:11:22;;;;;;;37.37;27.73;;;2.70;99.90;;;1.51;100.00;101162.88;5074277;28;20637;-72
2023/12/07 02:13:55;;;;;;;40.60;25.90;;;2.70;99.90;;;1.52;100.00;101170.72;5074355;28;20237;-72
2023/12/07 02:16:31;;;;;;;35.90;25.97;;;2.70;99.90;;;1.53;100.00;101167.16;5074728;28;20209;-72
2023/12/07 02:19:16;;;;;;;33.50;25.43;;;2.80;99.90;;;1.55;100.00;101174.97;5074568;28;20200;-72
2023/12/07 02:21:53;;;;;;;33.07;24.70;;;2.70;99.90;;;1.53;100.00;101169.78;5074436;28;20283;-72
2023/12/07 02:24:25;;;;;;;35.87;25.97;;;2.70;99.90;;;1.54;100.00;101173.28;5074479;28;20276;-72
2023/12/07 02:26:55;;;;;;;38.93;27.30;;;2.80;99.90;;;1.56;100.00;101178.44;5074369;28;20276;-72
2023/12/07 02:29:23;;;;;;;37.33;27.03;;;2.80;99.90;;;1.57;100.00;101180.16;5074322;28;20205;-72
2023/12/07 02:31:51;;;;;;;34.10;26.00;;;2.70;99.90;;;1.53;100.00;101177.72;5074108;28;20229;-72
2023/12/07 02:34:20;;;;;;;38.23;26.90;;;2.90;99.90;;;1.56;100.00;101181.09;5074190;28;20655;-72
2023/12/07 02:36:54;;;;;;;37.07;27.63;;;2.70;99.90;;;1.53;100.00;101185.63;5073779;28;20621;-72
2023/12/07 02:39:24;;;;;;;38.80;27.93;;;2.70;99.90;;;1.53;100.00;101172.44;5073871;28;20215;-72
2023/12/07 02:41:57;;;;;;;37.40;27.00;;;2.70;99.90;;;1.54;100.00;101184.66;5073529;28;20312;-72
2023/12/07 02:44:25;;;;;;;37.67;27.10;;;2.70;99.90;;;1.54;100.00;101192.56;5074050;28;20194;-72
2023/12/07 02:46:53;;;;;;;37.37;26.30;;;2.70;99.90;;;1.53;100.00;101185.63;5073952;28;20301;-72
2023/12/07 02:49:22;;;;;;;36.57;26.63;;;2.70;99.90;;;1.55;100.00;101185.50;5073902;28;20663;-72
2023/12/07 02:51:52;;;;;;;40.10;27.40;;;2.70;99.90;;;1.54;100.00;101184.66;5073925;28;20226;-72
2023/12/07 02:54:20;;;;;;;33.57;25.20;;;2.70;99.90;;;1.56;100.00;101181.09;5074499;28;20227;-72
2023/12/07 02:56:49;;;;;;;38.57;27.53;;;2.80;99.90;;;1.57;100.00;101188.06;5073819;28;20268;-72
2023/12/07 02:59:21;;;;;;;34.43;25.70;;;2.70;99.90;;;1.57;100.00;101183.66;5073880;28;20620;-72
2023/12/07 03:01:50;;;;;;;35.30;26.03;;;2.80;99.90;;;1.58;100.00;101184.47;5073674;28;20232;-72
2023/12/07 03:04:18;;;;;;;36.27;26.17;;;2.70;99.90;;;1.57;100.00;101193.34;5073723;28;20213;-72
2023/12/07 03:06:46;;;;;;;36.07;25.83;;;2.90;99.90;;;1.57;100.00;101188.94;5073919;28;20600;-72
2023/12/07 03:09:14;;;;;;;35.03;25.10;;;2.70;99.90;;;1.59;100.00;101188.81;5073729;28;20247;-72
2023/12/07 03:11:42;;;;;;;37.57;25.67;;;2.70;99.90;;;1.59;100.00;101194.09;5073250;28;20265;-72
2023/12/07 03:14:11;;;;;;;57.90;33.80;;;2.90;99.90;;;1.60;100.00;101196.66;5073367;28;20201;-72
2023/12/07 03:16:41;;;;;;;44.03;29.00;;;2.70;99.90;;;1.58;100.00;101195.88;5073187;28;20236;-72
2023/12/07 03:19:09;;;;;;;33.83;25.73;;;2.90;99.90;;;1.58;100.00;101189.75;5073266;28;20591;-72
2023/12/07 03:21:41;;;;;;;41.93;30.03;;;2.80;99.90;;;1.58;100.00;101193.25;5073489;28;20230;-72
2023/12/07 03:24:09;;;;;;;40.57;29.43;;;2.90;99.90;;;1.59;100.00;101196.72;5073704;28;20194;-72
2023/12/07 03:26:38;;;;;;;37.47;27.40;;;2.80;99.90;;;1.59;100.00;101202.88;5073493;28;20289;-72
2023/12/07 03:29:07;;;;;;;37.97;26.47;;;2.80;99.90;;;1.60;100.00;101199.28;5073147;28;20299;-72
2023/12/07 03:31:35;;;;;;;35.23;25.83;;;2.80;99.90;;;1.61;100.00;101194.88;5073491;28;20253;-72
2023/12/07 03:34:05;;;;;;;34.73;25.53;;;2.70;99.90;;;1.61;100.00;101194.88;5073611;28;20223;-72
2023/12/07 03:36:34;;;;;;;31.97;23.80;;;2.70;99.90;;;1.60;100.00;101203.72;5073392;28;20215;-72
2023/12/07 03:39:03;;;;;;;32.43;24.10;;;2.80;99.90;;;1.61;100.00;101205.44;5073726;28;20223;-72
2023/12/07 03:41:33;;;;;;;31.70;24.63;;;2.70;99.90;;;1.60;100.00;101203.72;5073111;28;20231;-72
2023/12/07 03:44:01;;;;;;;32.47;24.20;;;2.70;99.90;;;1.61;100.00;101214.16;5073430;28;20288;-72
2023/12/07 03:46:29;;;;;;;29.90;23.50;;;2.80;99.90;;;1.61;100.00;101215.97;5073323;28;20201;-72
2023/12/07 03:48:57;;;;;;;30.53;23.30;;;2.80;99.90;;;1.62;100.00;101215.03;5072919;28;20671;-72
2023/12/07 03:51:27;;;;;;;28.73;23.10;;;2.80;99.90;;;1.63;100.00;101211.44;5073259;28;20233;-72
2023/12/07 03:53:56;;;;;;;29.37;22.90;;;2.70;99.90;;;1.64;100.00;101215.78;5073887;28;20270;-72
2023/12/07 03:56:25;;;;;;;32.40;23.43;;;2.70;99.90;;;1.63;100.00;101211.44;5076962;28;20213;-72
2023/12/07 03:58:53;;;;;;;28.23;23.10;;;2.80;99.90;;;1.63;100.00;101209.66;5076910;28;20635;-72
2023/12/07 04:01:24;;;;;;;31.30;23.63;;;2.80;99.90;;;1.62;100.00;101222.94;5077126;28;20245;-72
2023/12/07 04:03:53;;;;;;;30.27;23.67;;;2.80;99.90;;;1.62;100.00;101228.22;5076884;28;20700;-72
2023/12/07 04:06:22;;;;;;;29.30;23.37;;;2.70;99.90;;;1.61;100.00;101231.81;5077110;28;20236;-72
2023/12/07 04:08:52;;;;;;;28.43;23.30;;;2.80;99.90;;;1.62;100.00;101225.56;5077034;28;20244;-72
2023/12/07 04:11:20;;;;;;;29.07;22.70;;;2.70;99.90;;;1.61;100.00;101226.53;5076892;28;20256;-72
2023/12/07 04:13:48;;;;;;;29.13;23.23;;;2.70;99.90;;;1.61;100.00;101226.53;5076560;28;20251;-72
2023/12/07 04:16:17;;;;;;;28.17;22.63;;;2.80;99.90;;;1.62;100.00;101228.22;5076839;28;20202;-72
2023/12/07 04:18:46;;;;;;;29.33;23.33;;;2.80;99.90;;;1.64;100.00;101229.00;5076830;28;20220;-72
2023/12/07 04:21:14;;;;;;;30.23;22.77;;;2.70;99.90;;;1.64;100.00;101227.22;5076663;28;20208;-72
2023/12/07 04:23:43;;;;;;;31.80;23.40;;;2.70;99.90;;;1.64;100.00;101231.63;5076888;28;20206;-72
2023/12/07 04:26:12;;;;;;;30.93;23.67;;;2.70;99.90;;;1.60;100.00;101235.38;5076697;28;20213;-72
2023/12/07 04:28:41;;;;;;;28.93;23.60;;;2.70;99.90;;;1.60;100.00;101230.97;5076639;28;20217;-72
2023/12/07 04:31:09;;;;;;;29.83;22.60;;;2.80;99.90;;;1.59;100.00;101236.31;5076482;28;20552;-72
2023/12/07 04:33:38;;;;;;;30.47;22.20;;;2.70;99.90;;;1.59;100.00;101229.25;5076345;28;20221;-72
2023/12/07 04:36:08;;;;;;;30.47;23.10;;;2.70;99.90;;;1.60;100.00;101225.69;5076487;28;20201;-72
2023/12/07 04:38:36;;;;;;;28.23;22.23;;;2.70;99.90;;;1.61;100.00;101223.91;5076353;28;20229;-72
2023/12/07 04:41:05;;;;;;;30.33;22.80;;;2.70;99.90;;;1.60;100.00;101224.84;5076360;28;20732;-72
2023/12/07 04:43:35;;;;;;;29.50;22.37;;;2.70;99.90;;;1.60;100.00;101232.75;5076336;28;20225;-72
2023/12/07 04:46:03;;;;;;;28.37;21.50;;;2.70;99.90;;;1.60;100.00;101241.53;5076509;28;20211;-72
2023/12/07 04:48:32;;;;;;;27.70;21.63;;;2.70;99.90;;;1.61;100.00;101234.47;5076263;28;20213;-72
2023/12/07 04:51:00;;;;;;;27.00;21.00;;;2.70;99.90;;;1.62;100.00;101238.78;5075865;28;20212;-72
2023/12/07 04:53:29;;;;;;;26.93;21.70;;;2.70;99.90;;;1.61;100.00;101234.47;5075744;28;20229;-72
2023/12/07 04:55:57;;;;;;;28.83;22.53;;;2.70;99.90;;;1.62;100.00;101233.50;5076411;28;20246;-72
2023/12/07 04:58:25;;;;;;;29.40;21.93;;;2.70;99.90;;;1.61;100.00;101230.00;5075946;28;20290;-72
2023/12/07 05:00:56;;;;;;;28.53;21.80;;;2.70;99.90;;;1.61;100.00;101239.72;5076059;28;20210;-72
2023/12/07 05:03:24;;;;;;;27.33;22.30;;;2.80;99.90;;;1.61;100.00;101242.38;5076007;28;20225;-72
2023/12/07 05:05:53;;;;;;;28.33;22.23;;;2.70;99.90;;;1.62;100.00;101238.78;5075554;28;20202;-72
2023/12/07 05:08:22;;;;;;;27.43;21.67;;;2.70;99.90;;;1.63;100.00;101235.19;5075633;28;20736;-72
2023/12/07 05:10:51;;;;;;;29.97;21.87;;;2.90;99.90;;;1.63;100.00;101235.19;5075879;28;20205;-71
2023/12/07 05:13:19;;;;;;;30.23;23.13;;;2.80;99.90;;;1.62;100.00;101238.78;5075415;28;20711;-71
2023/12/07 05:15:48;;;;;;;27.43;22.20;;;2.70;99.90;;;1.63;100.00;101241.34;5075791;28;20202;-71
2023/12/07 05:18:18;;;;;;;26.43;21.00;;;2.70;99.90;;;1.64;100.00;101239.53;5075658;28;20237;-71
2023/12/07 05:20:46;;;;;;;32.63;23.27;;;2.70;99.90;;;1.63;100.00;101235.19;5075671;28;20205;-71
2023/12/07 05:23:14;;;;;;;27.77;21.67;;;2.70;99.90;;;1.62;100.00;101238.78;5075587;28;20233;-71
2023/12/07 05:25:43;;;;;;;30.63;21.83;;;2.70;99.90;;;1.62;100.00;101233.50;5075309;28;20254;-71
2023/12/07 05:28:11;;;;;;;31.07;23.30;;;2.70;99.90;;;1.62;100.00;101241.41;5075582;28;20213;-71
2023/12/07 05:30:39;;;;;;;32.50;22.80;;;2.80;99.90;;;1.63;100.00;101251.03;5075496;28;20615;-71
2023/12/07 05:33:08;;;;;;;32.17;23.50;;;2.80;99.90;;;1.62;100.00;101238.78;5075072;28;20323;-71
2023/12/07 05:35:37;;;;;;;36.43;24.63;;;2.80;99.90;;;1.59;100.00;101242.44;5075427;28;20236;-71
2023/12/07 05:38:06;;;;;;;34.10;23.47;;;2.70;99.90;;;1.61;100.00;101243.19;5075270;28;20308;-71
2023/12/07 05:40:34;;;;;;;34.47;23.23;;;2.80;99.90;;;1.62;100.00;101233.50;5074973;28;20632;-71
2023/12/07 05:43:03;;;;;;;29.30;22.63;;;2.80;99.90;;;1.63;100.00;101235.19;5074888;28;20240;-71
2023/12/07 05:45:31;;;;;;;35.27;24.37;;;2.80;99.90;;;1.61;100.00;101237.91;5075292;28;20205;-71
2023/12/07 05:48:00;;;;;;;39.63;25.00;;;2.80;99.90;;;1.62;100.00;101238.78;5075244;28;20206;-71
2023/12/07 05:50:28;;;;;;;31.83;23.37;;;3.00;99.90;;;1.62;100.00;101239.63;5075149;28;20244;-71
2023/12/07 05:52:59;;;;;;;34.20;22.53;;;2.70;99.90;;;1.63;100.00;101249.25;5074746;28;20722;-71
2023/12/07 05:55:29;;;;;;;33.93;22.53;;;2.80;99.90;;;1.63;100.00;101230.78;5075114;28;20277;-71
2023/12/07 05:57:57;;;;;;;32.93;22.90;;;2.80;99.90;;;1.64;100.00;101243.03;5074768;28;20228;-71
2023/12/07 06:00:26;;;;;;;29.00;21.50;;;2.80;99.90;;;1.64;100.00;101237.75;5074843;28;20762;-71
2023/12/07 06:02:54;;;;;;;29.43;21.70;;;2.80;99.90;;;1.64;100.00;101236.91;5075113;28;20257;-72
2023/12/07 06:05:22;;;;;;;25.50;20.27;;;2.80;99.90;;;1.65;100.00;101239.44;5074652;28;20205;-72
2023/12/07 06:07:50;;;;;;;27.90;21.03;;;2.80;99.90;;;1.65;100.00;101239.44;5074422;28;20205;-71
2023/12/07 06:10:20;;;;;;;25.77;21.83;;;2.90;99.90;;;1.66;100.00;101242.94;5074862;28;20205;-71
2023/12/07 06:12:48;;;;;;;26.57;20.77;;;2.70;99.90;;;1.65;100.00;101249.13;5074731;28;20260;-72
2023/12/07 06:15:17;;;;;;;30.50;20.87;;;2.80;99.90;;;1.64;100.00;101243.03;5074779;28;20233;-72
2023/12/07 06:17:45;;;;;;;28.90;20.67;;;2.70;99.90;;;1.63;100.00;101246.63;5073755;28;20315;-72
2023/12/07 06:20:14;;;;;;;28.90;21.77;;;2.70;99.90;;;1.63;100.00;101251.03;5074700;28;20205;-72
2023/12/07 06:22:42;;;;;;;39.37;23.20;;;2.70;99.90;;;1.63;100.00;101248.41;5074594;28;20312;-72
2023/12/07 06:25:11;;;;;;;32.87;21.17;;;2.80;99.90;;;1.63;100.00;101251.88;5074888;28;20201;-72
2023/12/07 06:27:41;;;;;;;35.17;22.50;;;2.80;99.90;;;1.63;100.00;101251.03;5074390;28;20698;-72
2023/12/07 06:30:10;;;;;;;33.60;22.53;;;2.80;99.90;;;1.63;100.00;101261.59;5074778;28;20271;-72
2023/12/07 06:32:38;;;;;;;31.23;22.00;;;2.80;99.90;;;1.62;100.00;101260.75;5074488;28;20232;-72
2023/12/07 06:35:08;;;;;;;29.20;20.80;;;2.80;99.90;;;1.61;100.00;101271.41;5074317;28;20580;-72
2023/12/07 06:37:36;;;;;;;28.17;20.83;;;2.80;99.90;;;1.61;100.00;101269.59;5074431;28;20214;-72
2023/12/07 06:40:09;;;;;;;28.53;20.73;;;2.80;99.90;;;1.61;100.00;101268.75;5074485;28;20205;-72
2023/12/07 06:42:37;;;;;;;27.53;20.07;;;2.70;99.90;;;1.63;100.00;101274.78;5074402;28;20221;-72
2023/12/07 06:45:10;;;;;;;27.43;20.87;;;2.80;99.90;;;1.61;100.00;101274.88;5074299;28;20270;-71
2023/12/07 06:47:39;;;;;;;34.33;21.33;;;2.70;99.90;;;1.61;100.00;101280.16;5074370;28;20193;-71
2023/12/07 06:50:09;;;;;;;33.03;20.30;;;2.80;99.90;;;1.60;100.00;101275.81;5073972;28;20232;-71
2023/12/07 06:52:38;;;;;;;30.40;21.23;;;2.70;99.90;;;1.60;100.00;101280.25;5073169;28;20229;-71
2023/12/07 06:55:10;;;;;;;28.93;21.23;;;2.80;99.90;;;1.60;100.00;101282.88;5072866;28;20240;-72
2023/12/07 06:57:38;;;;;;;30.17;20.13;;;2.70;99.90;;;1.59;100.00;101282.03;5073403;28;20201;-72
2023/12/07 07:00:11;;;;;;;31.30;20.97;;;2.70;99.90;;;1.59;100.00;101286.47;5072647;28;20225;-72
2023/12/07 07:02:40;;;;;;;32.87;20.70;;;2.70;99.90;;;1.59;100.00;101283.81;5074083;28;20229;-72
2023/12/07 07:05:11;;;;;;;31.77;21.03;;;2.70;99.90;;;1.60;100.00;101290.81;5073682;28;20201;-72
2023/12/07 07:07:39;;;;;;;27.57;20.23;;;2.70;99.90;;;1.59;100.00;101300.50;5074055;28;20193;-72
2023/12/07 07:10:12;;;;;;;28.70;20.57;;;2.90;99.90;;;1.60;100.00;101304.00;5073716;28;20206;-72
2023/12/07 07:12:40;;;;;;;27.03;19.97;;;2.70;99.90;;;1.60;100.00;101298.72;5074071;28;20271;-72
2023/12/07 07:15:10;;;;;;;24.90;19.87;;;2.70;99.90;;;1.61;100.00;101300.44;5073900;28;20267;-72
2023/12/07 07:17:39;;;;;;;27.13;19.53;;;2.70;99.90;;;1.61;100.00;101295.16;5073628;28;20208;-72
2023/12/07 07:20:09;;;;;;;26.10;20.13;;;2.80;99.90;;;1.63;100.00;101304.69;5074008;28;20232;-72
2023/12/07 07:22:37;;;;;;;24.57;19.80;;;2.80;99.90;;;1.63;100.00;101301.19;5073372;28;20267;-72
2023/12/07 07:25:06;;;;;;;26.53;19.77;;;2.80;99.90;;;1.65;100.00;101312.47;5073885;28;20637;-72
2023/12/07 07:27:34;;;;;;;27.70;20.27;;;2.70;99.90;;;1.63;100.00;101306.47;5073712;28;20292;-72
2023/12/07 07:30:04;;;;;;;29.80;20.57;;;2.80;99.90;;;1.64;100.00;101301.09;5073622;28;20662;-72
2023/12/07 07:32:34;;;;;;;29.30;20.67;;;2.70;99.90;;;1.62;100.00;101302.97;5073636;28;20237;-72
2023/12/07 07:35:02;;;;;;;40.43;20.97;;;2.70;99.90;;;1.62;100.00;101302.09;5073724;28;20206;-72
2023/12/07 07:37:30;;;;;;;30.93;21.63;;;2.70;99.90;;;1.62;100.00;101308.25;5073683;28;20216;-72
2023/12/07 07:39:59;;;;;;;29.93;21.37;;;2.70;99.90;;;1.61;100.00;101314.44;5073343;28;20649;-73
2023/12/07 07:42:28;;;;;;;31.37;21.37;;;2.80;99.90;;;1.61;100.00;101314.44;5073116;28;20225;-73
2023/12/07 07:44:56;;;;;;;27.20;20.17;;;2.80;99.90;;;1.63;100.00;101311.72;5073282;28;20201;-73
2023/12/07 07:47:24;;;;;;;29.30;20.60;;;2.90;99.90;;;1.63;100.00;101317.88;5073564;28;20202;-73
2023/12/07 07:49:54;;;;;;;34.43;20.77;;;2.70;99.90;;;1.64;100.00;101326.66;5073356;28;20740;-73
2023/12/07 07:52:22;;;;;;;30.53;21.00;;;2.80;99.90;;;1.63;100.00;101325.78;5073655;28;20236;-72
2023/12/07 07:54:50;;;;;;;34.03;21.00;;;2.90;99.90;;;1.64;100.00;101318.72;5073241;28;20209;-72
2023/12/07 07:57:19;;;;;;;33.87;22.37;;;2.70;99.90;;;1.65;100.00;101323.03;5073561;28;20239;-71
2023/12/07 07:59:47;;;;;;;35.77;23.90;;;2.80;99.90;;;1.64;100.00;101313.44;5073309;28;20286;-72
2023/12/07 08:02:15;;;;;;;35.80;22.37;;;2.80;99.90;;;1.64;100.00;101324.00;5073297;28;20257;-72
2023/12/07 08:04:43;;;;;;;33.17;21.60;;;2.80;99.90;;;1.65;100.00;101328.31;5073280;28;20268;-72
2023/12/07 08:07:13;;;;;;;28.77;21.10;;;2.80;99.90;;;1.65;100.00;101323.03;5073352;28;20212;-72
2023/12/07 08:09:41;;;;;;;29.20;20.73;;;2.80;99.90;;;1.65;100.00;101328.31;5073469;28;20288;-73
2023/12/07 08:12:10;;;;;;;27.63;21.13;;;2.80;99.90;;;1.66;100.00;101330.03;5073241;28;20317;-72
2023/12/07 08:14:38;;;;;;;30.50;23.00;;;2.80;99.90;;;1.66;100.00;101335.31;5073658;28;20212;-72
2023/12/07 08:17:06;;;;;;;30.00;21.77;;;2.80;99.90;;;1.67;100.00;101334.38;5073471;28;20211;-72
2023/12/07 08:19:34;;;;;;;32.43;22.37;;;2.80;99.90;;;1.67;100.00;101335.22;5072743;28;20643;-73
2023/12/07 08:22:04;;;;;;;30.30;22.63;;;2.80;99.90;;;1.69;100.00;101329.84;5073504;28;20283;-73
2023/12/07 08:24:33;;;;;;;32.87;23.63;;;2.80;99.90;;;1.69;100.00;101337.75;5073192;28;20258;-72
2023/12/07 08:27:03;;;;;;;34.17;22.20;;;2.80;99.90;;;1.69;100.00;101330.69;5072925;28;20205;-72
2023/12/07 08:29:31;;;;;;;33.70;23.97;;;2.90;99.90;;;1.70;100.00;101339.47;5072897;28;20205;-72
2023/12/07 08:32:00;;;;;;;33.10;24.43;;;2.90;99.90;;;1.69;100.00;101335.97;5072869;28;20249;-72
2023/12/07 08:34:28;;;;;;;35.93;25.63;;;2.90;99.90;;;1.69;100.00;101335.13;5073181;28;20190;-72
2023/12/07 08:36:57;;;;;;;34.30;24.97;;;3.00;99.90;;;1.71;100.00;101330.63;5072746;28;20244;-72
2023/12/07 08:39:26;;;;;;;34.13;23.77;;;2.90;99.90;;;1.72;100.00;101334.94;5072676;28;20699;-72
2023/12/07 08:41:55;;;;;;;34.97;25.43;;;2.90;99.90;;;1.72;100.00;101335.81;5076501;28;20240;-72
2023/12/07 08:44:23;;;;;;;37.23;27.70;;;2.90;99.90;;;1.72;100.00;101343.72;5076375;28;20299;-72
2023/12/07 08:46:52;;;;;;;34.60;25.80;;;3.00;99.90;;;1.74;100.00;101341.00;5076505;28;20213;-72
2023/12/07 08:49:20;;;;;;;57.03;38.50;;;3.00;99.90;;;1.76;100.00;101339.97;5076475;28;20206;-72
2023/12/07 08:51:48;;;;;;;34.90;24.63;;;2.90;99.90;;;1.76;100.00;101339.97;5076122;28;20710;-72
2023/12/07 08:54:37;;;;;;;35.80;26.83;;;2.90;99.90;;;1.77;100.00;101344.31;5076369;28;20208;-72
2023/12/07 08:57:07;;;;;;;35.87;24.70;;;2.90;99.90;;;1.79;100.00;101336.28;5076374;28;20205;-72
2023/12/07 08:59:35;;;;;;;33.47;24.47;;;3.00;99.90;;;1.79;100.00;101341.56;5076221;28;20691;-72
2023/12/07 09:02:04;;;;;;;36.03;25.67;;;3.00;99.90;;;1.82;100.00;101341.38;5076260;28;20230;-72
2023/12/07 09:04:32;;;;;;;39.90;28.60;;;2.90;99.90;;;1.83;100.00;101343.09;5075936;28;20220;-72
2023/12/07 09:07:00;;;;;;;35.23;25.50;;;3.00;99.90;;;1.83;100.00;101348.38;5076201;28;20201;-72
2023/12/07 09:09:29;;;;;;;35.13;24.47;;;2.90;99.90;;;1.83;100.00;101358.94;5075814;28;20197;-73
2023/12/07 09:11:57;;;;;;;39.90;26.13;;;3.00;99.90;;;1.84;100.00;101358.00;5075840;28;20645;-72
2023/12/07 09:14:27;;;;;;;31.33;24.97;;;3.00;99.90;;;1.84;100.00;101355.38;5075682;28;20568;-72
2023/12/07 09:16:55;;;;;;;36.93;26.20;;;3.00;99.90;;;1.84;100.00;101355.38;5076138;28;20202;-72
2023/12/07 09:19:23;;;;;;;33.27;25.90;;;3.00;99.90;;;1.84;100.00;101355.38;5076048;28;20655;-72
2023/12/07 09:21:52;;;;;;;38.20;26.83;;;3.00;99.90;;;1.85;100.00;101357.91;5075910;28;20222;-72
2023/12/07 09:24:20;;;;;;;36.23;25.07;;;3.00;99.90;;;1.86;100.00;101356.97;5075926;28;20292;-73
2023/12/07 09:26:49;;;;;;;31.40;23.17;;;3.10;99.90;;;1.87;100.00;101360.47;5075508;28;20575;-72
2023/12/07 09:29:17;;;;;;;36.03;25.70;;;3.00;99.90;;;1.86;100.00;101364.88;5075576;28;20666;-72
2023/12/07 09:31:46;;;;;;;34.30;25.40;;;3.00;99.90;;;1.88;100.00;101367.44;5075436;28;20231;-72
2023/12/07 09:34:17;;;;;;;39.20;27.50;;;3.00;99.90;;;1.89;100.00;101367.34;5075715;28;20225;-72
2023/12/07 09:36:46;;;;;;;34.77;25.27;;;3.00;99.90;;;1.90;100.00;101373.47;5075626;28;20189;-72
2023/12/07 09:39:14;;;;;;;45.63;32.17;;;3.20;99.90;;;1.90;100.00;101365.56;5075647;28;20232;-72
2023/12/07 09:41:46;;;;;;;49.93;34.27;;;3.00;99.90;;;1.90;100.00;101362.91;5075591;28;20312;-72
2023/12/07 09:44:14;;;;;;;39.53;28.70;;;3.10;99.90;;;1.90;100.00;101370.84;5075387;28;20198;-72
2023/12/07 09:46:42;;;;;;;37.30;25.97;;;3.10;99.90;;;1.92;100.00;101374.22;5075513;28;20206;-72
2023/12/07 09:49:12;;;;;;;37.47;25.80;;;3.10;99.90;;;1.93;100.00;101366.22;5075396;28;20228;-72
2023/12/07 09:51:44;;;;;;;37.33;26.20;;;3.00;99.90;;;1.95;100.00;101371.44;5074996;28;20226;-72
2023/12/07 09:54:14;;;;;;;37.37;25.90;;;3.10;99.90;;;1.96;100.00;101375.75;5075330;28;20186;-72
2023/12/07 09:56:44;;;;;;;38.07;25.97;;;3.10;99.90;;;1.96;100.00;101367.81;5075245;28;20216;-73
2023/12/07 09:59:12;;;;;;;33.53;24.57;;;3.10;99.90;;;1.97;100.00;101364.25;5074725;28;20614;-72
2023/12/07 10:01:40;;;;;;;33.37;24.17;;;3.10;99.90;;;1.97;100.00;101356.34;5074991;28;20236;-72
2023/12/07 10:04:22;;;;;;;33.67;24.53;;;3.20;99.90;;;1.98;100.00;101368.59;5074984;28;20719;-72
2023/12/07 10:06:51;;;;;;;36.57;24.77;;;3.10;99.90;;;1.99;100.00;101363.22;5074839;28;20200;-73
2023/12/07 10:09:20;;;;;;;34.27;24.73;;;3.10;99.90;;;2.01;100.00;101363.16;5075623;28;20296;-73
2023/12/07 10:12:04;;;;;;;31.87;22.63;;;3.20;99.90;;;2.00;100.00;101367.56;5075525;28;20235;-73
2023/12/07 10:14:32;;;;;;;37.23;24.63;;;3.10;99.90;;;2.01;100.00;101352.56;5074915;28;20200;-73